sensor_id;sensor_type;location;lat;lon;timestamp;temperature;humidity
27567;DHT22;15006;48.584;9.186;2023-01-09T00:01:53;4.40;99.90
27567;DHT22;15006;48.584;9.186;2023-01-09T00:04:22;4.50;99.90
27567;DHT22;15006;48.584;9.186;2023-01-09T00:06:51;4.50;99.90
27567;DHT22;15006;48.584;9.186;2023-01-09T00:09:23;4.50;99.90
27567;DHT22;15006;48.584;9.186;2023-01-09T00:11:51;4.50;99.90
27567;DHT22;15006;48.584;9.186;2023-01-09T00:14:20;4.50;99.90
27567;DHT22;15006;48.584;9.186;2023-01-09T00:16:48;4.50;99.90
27567;DHT22;15006;48.584;9.186;2023-01-09T00:19:15;4.60;99.90
27567;DHT22;15006;48.584;9.186;2023-01-09T00:21:43;4.60;99.90
27567;DHT22;15006;48.584;9.186;2023-01-09T00:24:11;4.60;99.90
27567;DHT22;15006;48.584;9.186;2023-01-09T00:26:39;4.60;99.90
27567;DHT22;15006;48.584;9.186;2023-01-09T00:29:09;4.60;99.90
27567;DHT22;15006;48.584;9.186;2023-01-09T00:31:38;4.60;99.90
27567;DHT22;15006;48.584;9.186;2023-01-09T00:34:07;4.70;99.90
27567;DHT22;15006;48.584;9.186;2023-01-09T00:36:37;4.70;99.90
27567;DHT22;15006;48.584;9.186;2023-01-09T00:39:07;4.70;99.90
27567;DHT22;15006;48.584;9.186;2023-01-09T00:41:42;4.70;99.90
27567;DHT22;15006;48.584;9.186;2023-01-09T00:44:24;4.70;99.90
27567;DHT22;15006;48.584;9.186;2023-01-09T00:47:16;4.70;99.90
27567;DHT22;15006;48.584;9.186;2023-01-09T00:49:49;4.70;99.90
27567;DHT22;15006;48.584;9.186;2023-01-09T00:52:16;4.70;99.90
27567;DHT22;15006;48.584;9.186;2023-01-09T00:54:43;4.70;99.90
27567;DHT22;15006;48.584;9.186;2023-01-09T00:57:11;4.70;99.90
27567;DHT22;15006;48.584;9.186;2023-01-09T00:59:39;4.70;99.90
27567;DHT22;15006;48.584;9.186;2023-01-09T01:02:06;4.70;99.90
27567;DHT22;15006;48.584;9.186;2023-01-09T01:04:32;4.70;99.90
27567;DHT22;15006;48.584;9.186;2023-01-09T01:07:16;4.60;99.90
27567;DHT22;15006;48.584;9.186;2023-01-09T01:10:01;4.60;99.90
27567;DHT22;15006;48.584;9.186;2023-01-09T01:12:27;4.70;99.90
27567;DHT22;15006;48.584;9.186;2023-01-09T01:14:53;4.60;99.90
27567;DHT22;15006;48.584;9.186;2023-01-09T01:17:19;4.60;99.90
27567;DHT22;15006;48.584;9.186;2023-01-09T01:19:45;4.60;99.90
27567;DHT22;15006;48.584;9.186;2023-01-09T01:22:11;4.60;99.90
27567;DHT22;15006;48.584;9.186;2023-01-09T01:24:37;4.60;99.90
27567;DHT22;15006;48.584;9.186;2023-01-09T01:27:03;4.70;99.90
27567;DHT22;15006;48.584;9.186;2023-01-09T01:29:29;4.70;99.90
27567;DHT22;15006;48.584;9.186;2023-01-09T01:31:55;4.70;99.90
27567;DHT22;15006;48.584;9.186;2023-01-09T01:34:21;4.70;99.90
27567;DHT22;15006;48.584;9.186;2023-01-09T01:36:47;4.70;99.90
27567;DHT22;15006;48.584;9.186;2023-01-09T01:39:13;4.70;99.90
27567;DHT22;15006;48.584;9.186;2023-01-09T01:41:39;4.60;99.90
27567;DHT22;15006;48.584;9.186;2023-01-09T01:44:54;4.60;99.90
27567;DHT22;15006;48.584;9.186;2023-01-09T01:47:11;4.60;99.90
27567;DHT22;15006;48.584;9.186;2023-01-09T01:49:39;4.60;99.90
27567;DHT22;15006;48.584;9.186;2023-01-09T01:52:05;4.60;99.90
27567;DHT22;15006;48.584;9.186;2023-01-09T01:54:31;4.50;99.90
27567;DHT22;15006;48.584;9.186;2023-01-09T01:57:00;4.50;99.90
27567;DHT22;15006;48.584;9.186;2023-01-09T01:59:33;4.50;99.90
27567;DHT22;15006;48.584;9.186;2023-01-09T02:02:02;4.60;99.90
27567;DHT22;15006;48.584;9.186;2023-01-09T02:04:30;4.50;99.90
27567;DHT22;15006;48.584;9.186;2023-01-09T02:07:02;4.50;99.90
27567;DHT22;15006;48.584;9.186;2023-01-09T02:09:32;4.50;99.90
27567;DHT22;15006;48.584;9.186;2023-01-09T02:12:00;4.50;99.90
27567;DHT22;15006;48.584;9.186;2023-01-09T02:14:29;4.50;99.90
27567;DHT22;15006;48.584;9.186;2023-01-09T02:23:10;4.50;99.90
27567;DHT22;15006;48.584;9.186;2023-01-09T02:32:04;4.40;99.90
27567;DHT22;15006;48.584;9.186;2023-01-09T02:34:51;4.40;99.90
27567;DHT22;15006;48.584;9.186;2023-01-09T02:37:44;4.40;99.90
27567;DHT22;15006;48.584;9.186;2023-01-09T02:41:01;4.40;99.90
27567;DHT22;15006;48.584;9.186;2023-01-09T02:43:31;4.40;99.90
27567;DHT22;15006;48.584;9.186;2023-01-09T02:45:57;4.40;99.90
27567;DHT22;15006;48.584;9.186;2023-01-09T02:48:23;4.40;99.90
27567;DHT22;15006;48.584;9.186;2023-01-09T02:51:10;4.30;99.90
27567;DHT22;15006;48.584;9.186;2023-01-09T02:53:51;4.30;99.90
27567;DHT22;15006;48.584;9.186;2023-01-09T02:59:22;4.30;99.90
27567;DHT22;15006;48.584;9.186;2023-01-09T03:02:24;4.20;99.90
27567;DHT22;15006;48.584;9.186;2023-01-09T03:05:24;4.20;99.90
27567;DHT22;15006;48.584;9.186;2023-01-09T03:08:06;4.20;99.90
27567;DHT22;15006;48.584;9.186;2023-01-09T03:13:29;4.10;99.90
27567;DHT22;15006;48.584;9.186;2023-01-09T03:15:59;4.10;99.90
27567;DHT22;15006;48.584;9.186;2023-01-09T03:18:28;4.10;99.90
27567;DHT22;15006;48.584;9.186;2023-01-09T03:20:56;4.10;99.90
27567;DHT22;15006;48.584;9.186;2023-01-09T03:23:22;4.10;99.90
27567;DHT22;15006;48.584;9.186;2023-01-09T03:25:48;4.10;99.90
27567;DHT22;15006;48.584;9.186;2023-01-09T03:28:27;4.10;99.90
27567;DHT22;15006;48.584;9.186;2023-01-09T03:30:53;4.10;99.90
27567;DHT22;15006;48.584;9.186;2023-01-09T03:33:19;4.10;99.90
27567;DHT22;15006;48.584;9.186;2023-01-09T03:35:46;4.10;99.90
27567;DHT22;15006;48.584;9.186;2023-01-09T03:38:12;4.00;99.90
27567;DHT22;15006;48.584;9.186;2023-01-09T03:40:39;4.00;99.90
27567;DHT22;15006;48.584;9.186;2023-01-09T03:43:08;4.00;99.90
27567;DHT22;15006;48.584;9.186;2023-01-09T03:45:34;4.00;99.90
27567;DHT22;15006;48.584;9.186;2023-01-09T03:48:00;4.00;99.90
27567;DHT22;15006;48.584;9.186;2023-01-09T03:50:26;4.00;99.90
27567;DHT22;15006;48.584;9.186;2023-01-09T03:52:52;4.00;99.90
27567;DHT22;15006;48.584;9.186;2023-01-09T03:55:18;3.90;99.90
27567;DHT22;15006;48.584;9.186;2023-01-09T03:57:44;3.90;99.90
27567;DHT22;15006;48.584;9.186;2023-01-09T04:00:10;3.90;99.90
27567;DHT22;15006;48.584;9.186;2023-01-09T04:02:36;3.90;99.90
27567;DHT22;15006;48.584;9.186;2023-01-09T04:05:03;3.90;99.90
27567;DHT22;15006;48.584;9.186;2023-01-09T04:07:29;3.90;99.90
27567;DHT22;15006;48.584;9.186;2023-01-09T04:09:55;3.80;99.90
27567;DHT22;15006;48.584;9.186;2023-01-09T04:12:21;3.80;99.90
27567;DHT22;15006;48.584;9.186;2023-01-09T04:14:47;3.80;99.90
27567;DHT22;15006;48.584;9.186;2023-01-09T04:17:13;3.80;99.90
27567;DHT22;15006;48.584;9.186;2023-01-09T04:19:41;3.80;99.90
27567;DHT22;15006;48.584;9.186;2023-01-09T04:22:07;3.80;99.90
27567;DHT22;15006;48.584;9.186;2023-01-09T04:24:33;3.80;99.90
27567;DHT22;15006;48.584;9.186;2023-01-09T04:26:59;3.70;99.90
27567;DHT22;15006;48.584;9.186;2023-01-09T04:29:25;3.80;99.90
27567;DHT22;15006;48.584;9.186;2023-01-09T04:31:51;3.70;99.90
27567;DHT22;15006;48.584;9.186;2023-01-09T04:34:17;3.70;99.90
27567;DHT22;15006;48.584;9.186;2023-01-09T04:36:43;3.70;99.90
27567;DHT22;15006;48.584;9.186;2023-01-09T04:39:09;3.70;99.90
27567;DHT22;15006;48.584;9.186;2023-01-09T04:41:35;3.70;99.90
27567;DHT22;15006;48.584;9.186;2023-01-09T04:44:19;3.70;99.90
27567;DHT22;15006;48.584;9.186;2023-01-09T04:46:52;3.60;99.90
27567;DHT22;15006;48.584;9.186;2023-01-09T04:49:20;3.50;99.90
27567;DHT22;15006;48.584;9.186;2023-01-09T04:51:46;3.50;99.90
27567;DHT22;15006;48.584;9.186;2023-01-09T04:54:12;3.40;99.90
27567;DHT22;15006;48.584;9.186;2023-01-09T04:56:39;3.30;99.90
27567;DHT22;15006;48.584;9.186;2023-01-09T04:59:06;3.20;99.90
27567;DHT22;15006;48.584;9.186;2023-01-09T05:01:33;3.20;99.90
27567;DHT22;15006;48.584;9.186;2023-01-09T05:03:59;3.10;99.90
27567;DHT22;15006;48.584;9.186;2023-01-09T05:06:25;3.00;99.90
27567;DHT22;15006;48.584;9.186;2023-01-09T05:08:51;2.90;99.90
27567;DHT22;15006;48.584;9.186;2023-01-09T05:11:17;2.90;99.90
27567;DHT22;15006;48.584;9.186;2023-01-09T05:13:44;2.80;99.90
27567;DHT22;15006;48.584;9.186;2023-01-09T05:16:10;2.80;99.90
27567;DHT22;15006;48.584;9.186;2023-01-09T05:18:36;2.70;99.90
27567;DHT22;15006;48.584;9.186;2023-01-09T05:21:02;2.60;99.90
27567;DHT22;15006;48.584;9.186;2023-01-09T05:23:28;2.60;99.90
27567;DHT22;15006;48.584;9.186;2023-01-09T05:25:54;2.50;99.90
27567;DHT22;15006;48.584;9.186;2023-01-09T05:28:20;2.50;99.90
27567;DHT22;15006;48.584;9.186;2023-01-09T05:30:48;2.40;99.90
27567;DHT22;15006;48.584;9.186;2023-01-09T05:33:14;2.30;99.90
27567;DHT22;15006;48.584;9.186;2023-01-09T05:35:40;2.30;99.90
27567;DHT22;15006;48.584;9.186;2023-01-09T05:38:06;2.30;99.90
27567;DHT22;15006;48.584;9.186;2023-01-09T05:40:32;2.20;99.90
27567;DHT22;15006;48.584;9.186;2023-01-09T05:42:58;2.20;99.90
27567;DHT22;15006;48.584;9.186;2023-01-09T05:45:24;2.20;99.90
27567;DHT22;15006;48.584;9.186;2023-01-09T05:47:51;2.10;99.90
27567;DHT22;15006;48.584;9.186;2023-01-09T05:50:18;2.10;99.90
27567;DHT22;15006;48.584;9.186;2023-01-09T05:52:43;2.10;99.90
27567;DHT22;15006;48.584;9.186;2023-01-09T05:55:11;2.10;99.90
27567;DHT22;15006;48.584;9.186;2023-01-09T05:57:37;2.10;99.90
27567;DHT22;15006;48.584;9.186;2023-01-09T06:00:04;2.10;99.90
27567;DHT22;15006;48.584;9.186;2023-01-09T06:02:31;2.00;99.90
27567;DHT22;15006;48.584;9.186;2023-01-09T06:04:57;2.00;99.90
27567;DHT22;15006;48.584;9.186;2023-01-09T06:07:23;2.00;99.90
27567;DHT22;15006;48.584;9.186;2023-01-09T06:09:49;2.00;99.90
27567;DHT22;15006;48.584;9.186;2023-01-09T06:12:15;2.00;99.90
27567;DHT22;15006;48.584;9.186;2023-01-09T06:14:41;2.00;99.90
27567;DHT22;15006;48.584;9.186;2023-01-09T06:17:07;2.00;99.90
27567;DHT22;15006;48.584;9.186;2023-01-09T06:19:33;2.00;99.90
27567;DHT22;15006;48.584;9.186;2023-01-09T06:21:59;2.00;99.90
27567;DHT22;15006;48.584;9.186;2023-01-09T06:24:26;1.90;99.90
27567;DHT22;15006;48.584;9.186;2023-01-09T06:26:51;1.90;99.90
27567;DHT22;15006;48.584;9.186;2023-01-09T06:29:17;1.90;99.90
27567;DHT22;15006;48.584;9.186;2023-01-09T06:31:43;1.90;99.90
27567;DHT22;15006;48.584;9.186;2023-01-09T06:34:09;1.80;99.90
27567;DHT22;15006;48.584;9.186;2023-01-09T06:36:35;1.80;99.90
27567;DHT22;15006;48.584;9.186;2023-01-09T06:39:01;1.70;99.90
27567;DHT22;15006;48.584;9.186;2023-01-09T06:41:27;1.70;99.90
27567;DHT22;15006;48.584;9.186;2023-01-09T06:43:53;1.70;99.90
27567;DHT22;15006;48.584;9.186;2023-01-09T06:46:19;1.60;99.90
27567;DHT22;15006;48.584;9.186;2023-01-09T06:48:45;1.60;99.90
27567;DHT22;15006;48.584;9.186;2023-01-09T06:51:11;1.60;99.90
27567;DHT22;15006;48.584;9.186;2023-01-09T06:53:37;1.50;99.90
27567;DHT22;15006;48.584;9.186;2023-01-09T06:56:03;1.50;99.90
27567;DHT22;15006;48.584;9.186;2023-01-09T06:58:30;1.50;99.90
27567;DHT22;15006;48.584;9.186;2023-01-09T07:00:57;1.50;99.90
27567;DHT22;15006;48.584;9.186;2023-01-09T07:03:24;1.40;99.90
27567;DHT22;15006;48.584;9.186;2023-01-09T07:05:50;1.50;99.90
27567;DHT22;15006;48.584;9.186;2023-01-09T07:08:16;1.40;99.90
27567;DHT22;15006;48.584;9.186;2023-01-09T07:10:43;1.50;99.90
27567;DHT22;15006;48.584;9.186;2023-01-09T07:13:09;1.50;99.90
27567;DHT22;15006;48.584;9.186;2023-01-09T07:15:35;1.50;99.90
27567;DHT22;15006;48.584;9.186;2023-01-09T07:18:01;1.50;99.90
27567;DHT22;15006;48.584;9.186;2023-01-09T07:20:28;1.50;99.90
27567;DHT22;15006;48.584;9.186;2023-01-09T07:22:54;1.50;99.90
27567;DHT22;15006;48.584;9.186;2023-01-09T07:25:20;1.50;99.90
27567;DHT22;15006;48.584;9.186;2023-01-09T07:27:47;1.50;99.90
27567;DHT22;15006;48.584;9.186;2023-01-09T07:30:13;1.50;99.90
27567;DHT22;15006;48.584;9.186;2023-01-09T07:32:39;1.50;99.90
27567;DHT22;15006;48.584;9.186;2023-01-09T07:35:09;1.60;99.90
27567;DHT22;15006;48.584;9.186;2023-01-09T07:37:35;1.60;99.90
27567;DHT22;15006;48.584;9.186;2023-01-09T07:40:01;1.60;99.90
27567;DHT22;15006;48.584;9.186;2023-01-09T07:42:28;1.60;99.90
27567;DHT22;15006;48.584;9.186;2023-01-09T07:44:54;1.60;99.90
27567;DHT22;15006;48.584;9.186;2023-01-09T07:47:20;1.70;99.90
27567;DHT22;15006;48.584;9.186;2023-01-09T07:49:46;1.70;99.90
27567;DHT22;15006;48.584;9.186;2023-01-09T07:52:12;1.70;99.90
27567;DHT22;15006;48.584;9.186;2023-01-09T07:54:38;1.70;99.90
27567;DHT22;15006;48.584;9.186;2023-01-09T07:57:04;1.80;99.90
27567;DHT22;15006;48.584;9.186;2023-01-09T07:59:30;1.80;99.90
27567;DHT22;15006;48.584;9.186;2023-01-09T08:01:56;1.80;99.90
27567;DHT22;15006;48.584;9.186;2023-01-09T08:04:22;1.70;99.90
27567;DHT22;15006;48.584;9.186;2023-01-09T08:06:48;1.80;99.90
27567;DHT22;15006;48.584;9.186;2023-01-09T08:09:14;1.70;99.90
27567;DHT22;15006;48.584;9.186;2023-01-09T08:11:41;1.70;99.90
27567;DHT22;15006;48.584;9.186;2023-01-09T08:14:07;1.70;99.90
27567;DHT22;15006;48.584;9.186;2023-01-09T08:16:33;1.70;99.90
27567;DHT22;15006;48.584;9.186;2023-01-09T08:18:59;1.80;99.90
27567;DHT22;15006;48.584;9.186;2023-01-09T08:21:25;1.80;99.90
27567;DHT22;15006;48.584;9.186;2023-01-09T08:23:50;1.70;99.90
27567;DHT22;15006;48.584;9.186;2023-01-09T08:26:16;1.80;99.90
27567;DHT22;15006;48.584;9.186;2023-01-09T08:28:44;1.80;99.90
27567;DHT22;15006;48.584;9.186;2023-01-09T08:31:10;1.80;99.90
27567;DHT22;15006;48.584;9.186;2023-01-09T08:33:36;1.80;99.90
27567;DHT22;15006;48.584;9.186;2023-01-09T08:36:02;1.80;99.90
27567;DHT22;15006;48.584;9.186;2023-01-09T08:38:28;1.80;99.90
27567;DHT22;15006;48.584;9.186;2023-01-09T08:40:54;1.80;99.90
27567;DHT22;15006;48.584;9.186;2023-01-09T08:43:20;1.80;99.90
27567;DHT22;15006;48.584;9.186;2023-01-09T08:46:05;1.90;99.90
27567;DHT22;15006;48.584;9.186;2023-01-09T08:49:01;1.90;99.90
27567;DHT22;15006;48.584;9.186;2023-01-09T08:51:27;2.00;99.90
27567;DHT22;15006;48.584;9.186;2023-01-09T08:53:53;2.00;99.90
27567;DHT22;15006;48.584;9.186;2023-01-09T08:56:19;2.10;99.90
27567;DHT22;15006;48.584;9.186;2023-01-09T08:58:45;2.20;99.90
27567;DHT22;15006;48.584;9.186;2023-01-09T09:01:11;2.30;99.90
27567;DHT22;15006;48.584;9.186;2023-01-09T09:03:37;2.40;99.90
27567;DHT22;15006;48.584;9.186;2023-01-09T09:06:03;2.40;99.90
27567;DHT22;15006;48.584;9.186;2023-01-09T09:08:31;2.60;99.90
27567;DHT22;15006;48.584;9.186;2023-01-09T09:10:57;2.60;99.90
27567;DHT22;15006;48.584;9.186;2023-01-09T09:13:25;2.70;99.90
27567;DHT22;15006;48.584;9.186;2023-01-09T09:15:51;2.70;99.90
27567;DHT22;15006;48.584;9.186;2023-01-09T09:18:17;2.70;99.90
27567;DHT22;15006;48.584;9.186;2023-01-09T09:20:43;2.70;99.90
27567;DHT22;15006;48.584;9.186;2023-01-09T09:23:09;2.80;99.90
27567;DHT22;15006;48.584;9.186;2023-01-09T09:25:35;2.80;99.90
27567;DHT22;15006;48.584;9.186;2023-01-09T09:28:03;2.80;99.90
27567;DHT22;15006;48.584;9.186;2023-01-09T09:30:30;2.80;99.90
27567;DHT22;15006;48.584;9.186;2023-01-09T09:32:55;2.80;99.90
27567;DHT22;15006;48.584;9.186;2023-01-09T09:35:22;2.80;99.90
27567;DHT22;15006;48.584;9.186;2023-01-09T09:37:57;2.80;99.90
27567;DHT22;15006;48.584;9.186;2023-01-09T09:41:01;2.90;99.60
27567;DHT22;15006;48.584;9.186;2023-01-09T09:44:22;2.90;97.90
27567;DHT22;15006;48.584;9.186;2023-01-09T09:47:52;3.00;97.00
27567;DHT22;15006;48.584;9.186;2023-01-09T09:50:40;3.10;97.30
27567;DHT22;15006;48.584;9.186;2023-01-09T09:53:26;3.20;97.80
27567;DHT22;15006;48.584;9.186;2023-01-09T09:55:55;3.30;99.10
27567;DHT22;15006;48.584;9.186;2023-01-09T09:58:39;3.30;99.90
27567;DHT22;15006;48.584;9.186;2023-01-09T10:01:07;3.40;98.70
27567;DHT22;15006;48.584;9.186;2023-01-09T10:03:43;3.40;99.90
27567;DHT22;15006;48.584;9.186;2023-01-09T10:06:17;3.50;99.70
27567;DHT22;15006;48.584;9.186;2023-01-09T10:08:58;3.50;99.40
27567;DHT22;15006;48.584;9.186;2023-01-09T10:11:36;3.60;98.00
27567;DHT22;15006;48.584;9.186;2023-01-09T10:14:06;3.70;94.30
27567;DHT22;15006;48.584;9.186;2023-01-09T10:16:54;3.70;99.60
27567;DHT22;15006;48.584;9.186;2023-01-09T10:19:55;3.80;97.40
27567;DHT22;15006;48.584;9.186;2023-01-09T10:23:00;3.90;97.30
27567;DHT22;15006;48.584;9.186;2023-01-09T10:25:58;4.10;99.00
27567;DHT22;15006;48.584;9.186;2023-01-09T10:37:03;4.40;94.80
27567;DHT22;15006;48.584;9.186;2023-01-09T10:42:33;4.50;94.80
27567;DHT22;15006;48.584;9.186;2023-01-09T10:45:06;4.50;96.10
27567;DHT22;15006;48.584;9.186;2023-01-09T10:48:27;4.50;95.40
27567;DHT22;15006;48.584;9.186;2023-01-09T10:50:56;4.50;92.40
27567;DHT22;15006;48.584;9.186;2023-01-09T10:53:31;4.50;96.00
27567;DHT22;15006;48.584;9.186;2023-01-09T10:56:25;4.40;95.50
27567;DHT22;15006;48.584;9.186;2023-01-09T10:58:54;4.50;93.40
27567;DHT22;15006;48.584;9.186;2023-01-09T11:01:26;4.50;97.00
27567;DHT22;15006;48.584;9.186;2023-01-09T11:03:53;4.50;95.40
27567;DHT22;15006;48.584;9.186;2023-01-09T11:06:23;4.50;96.40
27567;DHT22;15006;48.584;9.186;2023-01-09T11:08:58;4.50;96.10
27567;DHT22;15006;48.584;9.186;2023-01-09T11:11:36;4.50;96.80
27567;DHT22;15006;48.584;9.186;2023-01-09T11:14:26;4.60;94.00
27567;DHT22;15006;48.584;9.186;2023-01-09T11:17:00;4.60;93.80
27567;DHT22;15006;48.584;9.186;2023-01-09T11:19:28;4.60;94.30
27567;DHT22;15006;48.584;9.186;2023-01-09T11:22:15;4.50;93.70
27567;DHT22;15006;48.584;9.186;2023-01-09T11:24:42;4.50;93.80
27567;DHT22;15006;48.584;9.186;2023-01-09T11:29:41;4.50;94.60
27567;DHT22;15006;48.584;9.186;2023-01-09T11:32:22;4.50;95.90
27567;DHT22;15006;48.584;9.186;2023-01-09T11:34:48;4.60;94.50
27567;DHT22;15006;48.584;9.186;2023-01-09T11:37:28;4.60;96.90
27567;DHT22;15006;48.584;9.186;2023-01-09T11:39:56;4.60;94.90
27567;DHT22;15006;48.584;9.186;2023-01-09T11:42:25;4.70;97.60
27567;DHT22;15006;48.584;9.186;2023-01-09T11:45:23;4.80;97.70
27567;DHT22;15006;48.584;9.186;2023-01-09T11:47:59;5.00;98.30
27567;DHT22;15006;48.584;9.186;2023-01-09T11:50:30;5.20;98.80
27567;DHT22;15006;48.584;9.186;2023-01-09T11:53:16;5.30;97.20
27567;DHT22;15006;48.584;9.186;2023-01-09T11:55:45;5.50;94.20
27567;DHT22;15006;48.584;9.186;2023-01-09T11:58:18;5.60;97.00
27567;DHT22;15006;48.584;9.186;2023-01-09T12:04:34;5.60;86.40
27567;DHT22;15006;48.584;9.186;2023-01-09T12:07:24;5.60;90.20
27567;DHT22;15006;48.584;9.186;2023-01-09T12:10:21;5.60;88.10
27567;DHT22;15006;48.584;9.186;2023-01-09T12:16:10;5.60;90.90
27567;DHT22;15006;48.584;9.186;2023-01-09T12:19:07;5.60;91.50
27567;DHT22;15006;48.584;9.186;2023-01-09T12:21:51;5.50;91.70
27567;DHT22;15006;48.584;9.186;2023-01-09T12:24:46;5.50;90.60
27567;DHT22;15006;48.584;9.186;2023-01-09T12:45:58;5.40;90.40
27567;DHT22;15006;48.584;9.186;2023-01-09T12:54:48;5.30;84.00
27567;DHT22;15006;48.584;9.186;2023-01-09T12:57:41;5.20;84.00
27567;DHT22;15006;48.584;9.186;2023-01-09T13:00:32;5.20;86.20
27567;DHT22;15006;48.584;9.186;2023-01-09T13:03:23;5.30;91.80
27567;DHT22;15006;48.584;9.186;2023-01-09T13:06:14;5.50;86.20
27567;DHT22;15006;48.584;9.186;2023-01-09T13:11:39;5.60;85.60
27567;DHT22;15006;48.584;9.186;2023-01-09T13:14:26;5.70;89.30
27567;DHT22;15006;48.584;9.186;2023-01-09T13:16:55;5.80;88.60
27567;DHT22;15006;48.584;9.186;2023-01-09T13:19:32;5.80;89.40
27567;DHT22;15006;48.584;9.186;2023-01-09T13:22:03;5.80;86.80
27567;DHT22;15006;48.584;9.186;2023-01-09T13:24:37;5.80;86.20
27567;DHT22;15006;48.584;9.186;2023-01-09T13:27:17;5.70;85.20
27567;DHT22;15006;48.584;9.186;2023-01-09T13:29:46;5.60;85.80
27567;DHT22;15006;48.584;9.186;2023-01-09T13:35:12;5.30;83.60
27567;DHT22;15006;48.584;9.186;2023-01-09T13:37:39;5.20;85.80
27567;DHT22;15006;48.584;9.186;2023-01-09T13:43:14;4.90;88.70
27567;DHT22;15006;48.584;9.186;2023-01-09T13:45:41;4.80;87.00
27567;DHT22;15006;48.584;9.186;2023-01-09T13:50:40;4.70;90.50
27567;DHT22;15006;48.584;9.186;2023-01-09T14:01:04;4.50;89.90
27567;DHT22;15006;48.584;9.186;2023-01-09T14:06:34;4.30;90.80
27567;DHT22;15006;48.584;9.186;2023-01-09T14:09:11;4.10;91.30
27567;DHT22;15006;48.584;9.186;2023-01-09T14:11:44;3.90;91.50
27567;DHT22;15006;48.584;9.186;2023-01-09T14:14:26;3.80;92.50
27567;DHT22;15006;48.584;9.186;2023-01-09T14:16:54;3.70;92.90
27567;DHT22;15006;48.584;9.186;2023-01-09T14:19:33;3.70;94.30
27567;DHT22;15006;48.584;9.186;2023-01-09T14:22:04;3.70;94.30
27567;DHT22;15006;48.584;9.186;2023-01-09T14:24:44;3.90;98.10
27567;DHT22;15006;48.584;9.186;2023-01-09T14:38:41;5.40;99.50
27567;DHT22;15006;48.584;9.186;2023-01-09T14:47:20;5.70;92.40
27567;DHT22;15006;48.584;9.186;2023-01-09T14:49:57;5.50;90.30
27567;DHT22;15006;48.584;9.186;2023-01-09T14:52:31;5.30;91.30
27567;DHT22;15006;48.584;9.186;2023-01-09T14:55:03;5.10;92.10
27567;DHT22;15006;48.584;9.186;2023-01-09T14:57:33;4.90;91.40
27567;DHT22;15006;48.584;9.186;2023-01-09T15:00:05;4.70;92.00
27567;DHT22;15006;48.584;9.186;2023-01-09T15:02:40;4.50;92.40
27567;DHT22;15006;48.584;9.186;2023-01-09T15:05:29;4.40;90.60
27567;DHT22;15006;48.584;9.186;2023-01-09T15:07:59;4.20;92.70
27567;DHT22;15006;48.584;9.186;2023-01-09T15:10:29;4.00;93.00
27567;DHT22;15006;48.584;9.186;2023-01-09T15:12:58;3.90;93.80
27567;DHT22;15006;48.584;9.186;2023-01-09T15:15:26;3.90;93.70
27567;DHT22;15006;48.584;9.186;2023-01-09T15:18:21;3.70;93.40
27567;DHT22;15006;48.584;9.186;2023-01-09T15:20:52;3.70;92.40
27567;DHT22;15006;48.584;9.186;2023-01-09T15:23:24;3.60;93.70
27567;DHT22;15006;48.584;9.186;2023-01-09T15:25:56;3.50;94.20
27567;DHT22;15006;48.584;9.186;2023-01-09T15:28:27;3.40;94.60
27567;DHT22;15006;48.584;9.186;2023-01-09T15:31:12;3.30;93.90
27567;DHT22;15006;48.584;9.186;2023-01-09T15:33:41;3.20;93.70
27567;DHT22;15006;48.584;9.186;2023-01-09T15:36:35;3.10;94.50
27567;DHT22;15006;48.584;9.186;2023-01-09T15:39:05;2.90;94.20
27567;DHT22;15006;48.584;9.186;2023-01-09T15:41:32;2.70;95.40
27567;DHT22;15006;48.584;9.186;2023-01-09T15:44:27;2.70;96.00
27567;DHT22;15006;48.584;9.186;2023-01-09T15:46:56;2.60;96.10
27567;DHT22;15006;48.584;9.186;2023-01-09T15:49:24;2.50;96.80
27567;DHT22;15006;48.584;9.186;2023-01-09T15:51:50;2.40;97.30
27567;DHT22;15006;48.584;9.186;2023-01-09T15:54:24;2.30;97.50
27567;DHT22;15006;48.584;9.186;2023-01-09T15:56:53;2.30;97.30
27567;DHT22;15006;48.584;9.186;2023-01-09T15:59:27;2.20;97.80
27567;DHT22;15006;48.584;9.186;2023-01-09T16:01:59;2.20;97.30
27567;DHT22;15006;48.584;9.186;2023-01-09T16:04:45;2.10;97.70
27567;DHT22;15006;48.584;9.186;2023-01-09T16:07:14;2.10;98.40
27567;DHT22;15006;48.584;9.186;2023-01-09T16:09:45;2.00;98.40
27567;DHT22;15006;48.584;9.186;2023-01-09T16:12:21;2.00;98.60
27567;DHT22;15006;48.584;9.186;2023-01-09T16:14:51;1.90;98.60
27567;DHT22;15006;48.584;9.186;2023-01-09T16:17:20;1.90;99.10
27567;DHT22;15006;48.584;9.186;2023-01-09T16:22:28;1.90;99.40
27567;DHT22;15006;48.584;9.186;2023-01-09T16:25:00;1.90;98.80
27567;DHT22;15006;48.584;9.186;2023-01-09T16:27:29;1.90;99.60
27567;DHT22;15006;48.584;9.186;2023-01-09T16:30:06;1.90;99.90
27567;DHT22;15006;48.584;9.186;2023-01-09T16:32:35;1.90;99.90
27567;DHT22;15006;48.584;9.186;2023-01-09T16:35:19;1.90;99.90
27567;DHT22;15006;48.584;9.186;2023-01-09T16:37:46;1.90;99.90
27567;DHT22;15006;48.584;9.186;2023-01-09T16:42:48;1.90;99.90
27567;DHT22;15006;48.584;9.186;2023-01-09T16:45:27;1.90;99.90
27567;DHT22;15006;48.584;9.186;2023-01-09T16:47:55;1.90;99.90
27567;DHT22;15006;48.584;9.186;2023-01-09T16:50:23;1.90;99.90
27567;DHT22;15006;48.584;9.186;2023-01-09T16:52:50;1.90;99.90
27567;DHT22;15006;48.584;9.186;2023-01-09T16:55:17;1.90;99.90
27567;DHT22;15006;48.584;9.186;2023-01-09T16:57:43;1.90;99.90
27567;DHT22;15006;48.584;9.186;2023-01-09T17:00:17;1.90;99.90
27567;DHT22;15006;48.584;9.186;2023-01-09T17:02:44;1.90;99.90
27567;DHT22;15006;48.584;9.186;2023-01-09T17:05:10;1.90;99.90
27567;DHT22;15006;48.584;9.186;2023-01-09T17:07:36;2.00;99.90
27567;DHT22;15006;48.584;9.186;2023-01-09T17:10:04;2.00;99.90
27567;DHT22;15006;48.584;9.186;2023-01-09T17:12:31;2.00;99.90
27567;DHT22;15006;48.584;9.186;2023-01-09T17:14:56;2.00;99.90
27567;DHT22;15006;48.584;9.186;2023-01-09T17:17:24;2.10;99.90
27567;DHT22;15006;48.584;9.186;2023-01-09T17:19:50;2.00;99.90
27567;DHT22;15006;48.584;9.186;2023-01-09T17:22:16;2.00;99.90
27567;DHT22;15006;48.584;9.186;2023-01-09T17:24:42;2.10;99.90
27567;DHT22;15006;48.584;9.186;2023-01-09T17:27:31;2.10;99.90
27567;DHT22;15006;48.584;9.186;2023-01-09T17:30:17;2.00;99.90
27567;DHT22;15006;48.584;9.186;2023-01-09T17:32:44;2.00;99.90
27567;DHT22;15006;48.584;9.186;2023-01-09T17:35:14;2.00;99.90
27567;DHT22;15006;48.584;9.186;2023-01-09T17:37:41;1.90;99.90
27567;DHT22;15006;48.584;9.186;2023-01-09T17:40:21;1.90;99.90
27567;DHT22;15006;48.584;9.186;2023-01-09T17:42:48;1.80;99.90
27567;DHT22;15006;48.584;9.186;2023-01-09T17:45:14;1.80;99.90
27567;DHT22;15006;48.584;9.186;2023-01-09T17:47:40;1.80;99.90
27567;DHT22;15006;48.584;9.186;2023-01-09T17:50:08;1.80;99.90
27567;DHT22;15006;48.584;9.186;2023-01-09T17:52:45;1.70;99.90
27567;DHT22;15006;48.584;9.186;2023-01-09T17:55:11;1.70;99.90
27567;DHT22;15006;48.584;9.186;2023-01-09T17:57:37;1.60;99.90
27567;DHT22;15006;48.584;9.186;2023-01-09T18:00:04;1.60;99.90
27567;DHT22;15006;48.584;9.186;2023-01-09T18:02:31;1.60;99.90